Aberdeen, SD - Weather Station Data
 
Daily Summary for June 18, 2019 Units:  English    Metric   Both
Daily Weekly Monthly Yearly Custom
  Current: High: Low: Average:
Temperature: 74 °F 79 °F 53 °F 66.5 °F
Dew Point: 52 °F 56 °F 50 °F 52.9 °F
Humidity: 46% 89% 39% 65%
Wind Speed: 2mph 7mph 0mph 1.1mph
Wind Gust: 9mph 12mph - -
WindNE - - South
Pressure: 29.84 in 30.01 in 29.84 in -
Precipitation: 0 in      
Historical Graphs
 
 
Tabular Data for June 18, 2019
Time Temperature Dew Point Pressure Wind Wind Speed Wind Gust Humidity Rainfall Rate (Hourly) solar
00:00 59 °F 52 °F 29.99 in Calm     78% 0 in 0 W/m2
00:15 58 °F 51 °F 29.99 in Calm     78% 0 in 0 W/m2
00:30 58 °F 52 °F 30 in Calm     80% 0 in 0 W/m2
00:45 58 °F 52 °F 30 in Calm     81% 0 in 0 W/m2
01:00 57 °F 52 °F 30 in Calm     82% 0 in 0 W/m2
01:15 57 °F 52 °F 29.99 in Calm     83% 0 in 0 W/m2
01:45 57 °F 52 °F 29.99 in Calm     83% 0 in 0 W/m2
02:00 56 °F 52 °F 29.98 in Calm     84% 0 in 0 W/m2
02:15 56 °F 52 °F 29.98 in Calm     85% 0 in 0 W/m2
02:30 56 °F 52 °F 29.98 in Calm   3 mph 86% 0 in 0 W/m2
02:45 56 °F 52 °F 29.98 in NNW 1 mph 3 mph 86% 0 in 0 W/m2
03:00 56 °F 52 °F 29.98 in NNW 1 mph 3 mph 86% 0 in 0 W/m2
03:15 56 °F 52 °F 29.98 in Calm     85% 0 in 0 W/m2
03:30 56 °F 51 °F 29.98 in Calm   2 mph 85% 0 in 0 W/m2
03:45 55 °F 51 °F 29.98 in Calm   1 mph 86% 0 in 0 W/m2
04:00 55 °F 51 °F 29.98 in Calm     85% 0 in 0 W/m2
04:15 55 °F 50 °F 29.97 in Calm     86% 0 in 0 W/m2
04:30 55 °F 51 °F 29.98 in Calm   1 mph 87% 0 in 0 W/m2
04:45 55 °F 51 °F 29.98 in Calm   1 mph 87% 0 in 0 W/m2
05:00 55 °F 51 °F 29.98 in Calm   3 mph 87% 0 in 0 W/m2
05:15 54 °F 51 °F 29.98 in Calm   4 mph 87% 0 in 0 W/m2
05:30 54 °F 50 °F 29.97 in Calm   4 mph 87% 0 in 0 W/m2
05:45 54 °F 50 °F 29.98 in Calm   1 mph 87% 0 in 5 W/m2
06:00 54 °F 50 °F 29.99 in Calm   1 mph 87% 0 in 12 W/m2
06:30 53 °F 50 °F 29.98 in Calm     88% 0 in 23 W/m2
06:45 54 °F 51 °F 29.98 in Calm     89% 0 in 28 W/m2
07:00 55 °F 52 °F 29.98 in Calm     89% 0 in 116 W/m2
07:15 57 °F 54 °F 29.99 in Calm   4 mph 88% 0 in 162 W/m2
07:30 59 °F 54 °F 29.99 in NNW 1 mph 3 mph 84% 0 in 211 W/m2
07:45 61 °F 54 °F 30 in Calm   2 mph 79% 0 in 265 W/m2
08:00 62 °F 54 °F 30 in Calm   2 mph 75% 0 in 408 W/m2
08:15 64 °F 55 °F 30 in Calm   1 mph 72% 0 in 522 W/m2
08:30 64 °F 54 °F 30 in Calm   5 mph 69% 0 in 271 W/m2
08:45 65 °F 55 °F 30 in N 2 mph 4 mph 70% 0 in 487 W/m2
09:00 65 °F 54 °F 30.01 in Calm   3 mph 68% 0 in 294 W/m2
09:15 65 °F 54 °F 30 in Calm   3 mph 68% 0 in 679 W/m2
09:30 67 °F 54 °F 30 in NNE 3 mph 5 mph 65% 0 in 357 W/m2
09:45 66 °F 55 °F 30 in NNE 2 mph 9 mph 66% 0 in 756 W/m2
10:00 67 °F 55 °F 30 in N 6 mph 8 mph 65% 0 in 636 W/m2
10:15 68 °F 54 °F 29.99 in N 2 mph 6 mph 62% 0 in 663 W/m2
10:30 68 °F 55 °F 29.99 in NNE 1 mph 8 mph 64% 0 in 773 W/m2
10:45 69 °F 56 °F 29.99 in Calm   5 mph 63% 0 in 218 W/m2
11:00 70 °F 56 °F 29.98 in Calm   8 mph 60% 0 in 791 W/m2
11:15 70 °F 55 °F 29.98 in Calm   8 mph 59% 0 in 895 W/m2
11:30 71 °F 55 °F 29.97 in N 2 mph 4 mph 59% 0 in 865 W/m2
11:45 72 °F 55 °F 29.97 in NNW 4 mph 12 mph 57% 0 in 840 W/m2
12:00 72 °F 55 °F 29.96 in N 3 mph 10 mph 56% 0 in 870 W/m2
12:15 72 °F 54 °F 29.96 in Calm   9 mph 53% 0 in 914 W/m2
12:30 73 °F 53 °F 29.96 in WSW 6 mph 9 mph 50% 0 in 918 W/m2
12:45 73 °F 55 °F 29.95 in WNW 7 mph 9 mph 53% 0 in 916 W/m2
13:00 73 °F 55 °F 29.94 in Calm   11 mph 53% 0 in 937 W/m2
13:15 74 °F 54 °F 29.94 in NNW 1 mph 10 mph 51% 0 in 951 W/m2
13:30 74 °F 54 °F 29.93 in NNE 1 mph 8 mph 50% 0 in 1009 W/m2
13:45 75 °F 54 °F 29.93 in Calm   9 mph 49% 0 in 977 W/m2
14:00 75 °F 55 °F 29.93 in Calm   6 mph 50% 0 in 1053 W/m2
14:15 75 °F 54 °F 29.92 in WSW 3 mph 9 mph 48% 0 in 1028 W/m2
14:30 76 °F 55 °F 29.92 in Calm   10 mph 49% 0 in 454 W/m2
14:45 75 °F 55 °F 29.91 in Calm   8 mph 50% 0 in 582 W/m2
15:00 75 °F 54 °F 29.91 in WNW 6 mph 8 mph 48% 0 in 816 W/m2
15:15 76 °F 53 °F 29.91 in NNW 2 mph 9 mph 44% 0 in 970 W/m2
15:30 75 °F 53 °F 29.9 in NNE 1 mph 6 mph 46% 0 in 865 W/m2
15:45 77 °F 54 °F 29.9 in N 2 mph 11 mph 46% 0 in 872 W/m2
16:00 77 °F 53 °F 29.89 in Calm   9 mph 43% 0 in 835 W/m2
16:15 78 °F 53 °F 29.89 in W 1 mph 6 mph 43% 0 in 780 W/m2
16:30 77 °F 53 °F 29.88 in N 2 mph 9 mph 43% 0 in 782 W/m2
16:45 77 °F 52 °F 29.87 in N 5 mph 9 mph 42% 0 in 192 W/m2
17:00 77 °F 52 °F 29.87 in Calm   8 mph 43% 0 in 645 W/m2
17:15 77 °F 52 °F 29.86 in Calm   9 mph 42% 0 in 587 W/m2
17:30 78 °F 52 °F 29.85 in N 4 mph 6 mph 40% 0 in 497 W/m2
17:45 79 °F 52 °F 29.85 in NNE 1 mph 8 mph 39% 0 in 411 W/m2
18:15 78 °F 53 °F 29.84 in Calm   6 mph 41% 0 in 438 W/m2
18:30 78 °F 53 °F 29.84 in NNE 6 mph 9 mph 42% 0 in 274 W/m2
18:45 77 °F 52 °F 29.84 in Calm   6 mph 41% 0 in 81 W/m2
19:00 77 °F 52 °F 29.84 in NNE 5 mph 6 mph 43% 0 in 188 W/m2
19:15 76 °F 53 °F 29.84 in NNE 6 mph 6 mph 44% 0 in 58 W/m2
19:30 75 °F 53 °F 29.84 in Calm   5 mph 46% 0 in 69 W/m2
19:45 75 °F 52 °F 29.84 in Calm   4 mph 46% 0 in 76 W/m2
20:00 75 °F 53 °F 29.84 in NE 2 mph 6 mph 47% 0 in 65 W/m2
20:15 74 °F 53 °F 29.84 in Calm   5 mph 47% 0 in 54 W/m2
20:30 74 °F 52 °F 29.84 in NE 2 mph 9 mph 46% 0 in 39 W/m2
Compliments of Weather Underground - 2 mb